sensor_id;sensor_type;location;lat;lon;timestamp;P1;durP1;ratioP1;P2;durP2;ratioP2
20140;SDS011;10231;47.702;9.826;2023-05-21T00:02:21;6.80;;;6.17;;
20140;SDS011;10231;47.702;9.826;2023-05-21T00:04:47;7.10;;;6.47;;
20140;SDS011;10231;47.702;9.826;2023-05-21T00:07:12;6.47;;;5.67;;
20140;SDS011;10231;47.702;9.826;2023-05-21T00:09:39;6.53;;;5.60;;
20140;SDS011;10231;47.702;9.826;2023-05-21T00:12:05;6.93;;;6.17;;
20140;SDS011;10231;47.702;9.826;2023-05-21T00:14:34;6.10;;;5.60;;
20140;SDS011;10231;47.702;9.826;2023-05-21T00:16:59;6.93;;;6.23;;
20140;SDS011;10231;47.702;9.826;2023-05-21T00:19:25;5.83;;;5.33;;
20140;SDS011;10231;47.702;9.826;2023-05-21T00:21:53;6.20;;;5.60;;
20140;SDS011;10231;47.702;9.826;2023-05-21T00:24:19;6.13;;;5.57;;
20140;SDS011;10231;47.702;9.826;2023-05-21T00:26:45;6.33;;;5.73;;
20140;SDS011;10231;47.702;9.826;2023-05-21T00:29:11;6.57;;;5.93;;
20140;SDS011;10231;47.702;9.826;2023-05-21T00:31:36;7.37;;;6.30;;
20140;SDS011;10231;47.702;9.826;2023-05-21T00:34:02;7.23;;;6.27;;
20140;SDS011;10231;47.702;9.826;2023-05-21T00:36:27;6.77;;;6.17;;
20140;SDS011;10231;47.702;9.826;2023-05-21T00:38:55;6.90;;;6.20;;
20140;SDS011;10231;47.702;9.826;2023-05-21T00:41:20;6.97;;;6.40;;
20140;SDS011;10231;47.702;9.826;2023-05-21T00:43:47;7.70;;;6.70;;
20140;SDS011;10231;47.702;9.826;2023-05-21T00:46:13;8.07;;;6.40;;
20140;SDS011;10231;47.702;9.826;2023-05-21T00:48:42;6.33;;;5.67;;
20140;SDS011;10231;47.702;9.826;2023-05-21T00:51:09;7.00;;;6.30;;
20140;SDS011;10231;47.702;9.826;2023-05-21T00:53:36;7.40;;;6.17;;
20140;SDS011;10231;47.702;9.826;2023-05-21T00:56:01;6.67;;;6.07;;
20140;SDS011;10231;47.702;9.826;2023-05-21T00:58:28;6.87;;;6.17;;
20140;SDS011;10231;47.702;9.826;2023-05-21T01:00:54;6.80;;;6.20;;
20140;SDS011;10231;47.702;9.826;2023-05-21T01:03:23;6.17;;;5.57;;
20140;SDS011;10231;47.702;9.826;2023-05-21T01:05:50;7.00;;;6.27;;
20140;SDS011;10231;47.702;9.826;2023-05-21T01:08:17;6.37;;;5.40;;
20140;SDS011;10231;47.702;9.826;2023-05-21T01:10:46;6.43;;;5.57;;
20140;SDS011;10231;47.702;9.826;2023-05-21T01:13:13;6.60;;;6.03;;
20140;SDS011;10231;47.702;9.826;2023-05-21T01:15:40;7.50;;;6.80;;
20140;SDS011;10231;47.702;9.826;2023-05-21T01:18:07;8.67;;;6.80;;
20140;SDS011;10231;47.702;9.826;2023-05-21T01:20:33;7.80;;;5.90;;
20140;SDS011;10231;47.702;9.826;2023-05-21T01:22:59;8.03;;;5.93;;
20140;SDS011;10231;47.702;9.826;2023-05-21T01:25:24;8.47;;;7.17;;
20140;SDS011;10231;47.702;9.826;2023-05-21T01:27:50;7.73;;;6.93;;
20140;SDS011;10231;47.702;9.826;2023-05-21T01:30:16;6.67;;;6.07;;
20140;SDS011;10231;47.702;9.826;2023-05-21T01:32:58;6.87;;;6.27;;
20140;SDS011;10231;47.702;9.826;2023-05-21T01:35:34;9.70;;;6.93;;
20140;SDS011;10231;47.702;9.826;2023-05-21T01:38:08;6.33;;;5.73;;
20140;SDS011;10231;47.702;9.826;2023-05-21T01:40:52;6.70;;;6.10;;
20140;SDS011;10231;47.702;9.826;2023-05-21T01:43:28;7.77;;;6.10;;
20140;SDS011;10231;47.702;9.826;2023-05-21T01:45:56;7.17;;;6.23;;
20140;SDS011;10231;47.702;9.826;2023-05-21T01:48:27;6.77;;;6.17;;
20140;SDS011;10231;47.702;9.826;2023-05-21T01:50:54;6.73;;;6.13;;
20140;SDS011;10231;47.702;9.826;2023-05-21T01:53:24;6.70;;;6.10;;
20140;SDS011;10231;47.702;9.826;2023-05-21T01:55:50;7.50;;;5.90;;
20140;SDS011;10231;47.702;9.826;2023-05-21T01:58:16;7.13;;;6.43;;
20140;SDS011;10231;47.702;9.826;2023-05-21T02:00:42;7.93;;;6.60;;
20140;SDS011;10231;47.702;9.826;2023-05-21T02:03:09;8.90;;;8.00;;
20140;SDS011;10231;47.702;9.826;2023-05-21T02:05:35;6.87;;;6.30;;
20140;SDS011;10231;47.702;9.826;2023-05-21T02:08:00;8.17;;;6.50;;
20140;SDS011;10231;47.702;9.826;2023-05-21T02:10:26;7.97;;;7.27;;
20140;SDS011;10231;47.702;9.826;2023-05-21T02:12:52;9.73;;;7.57;;
20140;SDS011;10231;47.702;9.826;2023-05-21T02:15:17;7.57;;;6.53;;
20140;SDS011;10231;47.702;9.826;2023-05-21T02:17:43;9.00;;;6.80;;
20140;SDS011;10231;47.702;9.826;2023-05-21T02:20:10;7.83;;;7.03;;
20140;SDS011;10231;47.702;9.826;2023-05-21T02:22:39;8.23;;;7.43;;
20140;SDS011;10231;47.702;9.826;2023-05-21T02:25:06;8.60;;;7.57;;
20140;SDS011;10231;47.702;9.826;2023-05-21T02:27:34;7.67;;;6.60;;
20140;SDS011;10231;47.702;9.826;2023-05-21T02:30:01;9.33;;;7.20;;
20140;SDS011;10231;47.702;9.826;2023-05-21T02:32:30;7.43;;;6.50;;
20140;SDS011;10231;47.702;9.826;2023-05-21T02:34:56;8.03;;;7.10;;
20140;SDS011;10231;47.702;9.826;2023-05-21T02:37:23;15.53;;;7.33;;
20140;SDS011;10231;47.702;9.826;2023-05-21T02:39:51;7.90;;;7.10;;
20140;SDS011;10231;47.702;9.826;2023-05-21T02:42:20;7.17;;;6.53;;
20140;SDS011;10231;47.702;9.826;2023-05-21T02:44:47;8.43;;;6.67;;
20140;SDS011;10231;47.702;9.826;2023-05-21T02:47:13;9.20;;;7.03;;
20140;SDS011;10231;47.702;9.826;2023-05-21T02:49:38;8.23;;;7.53;;
20140;SDS011;10231;47.702;9.826;2023-05-21T02:52:04;8.13;;;7.40;;
20140;SDS011;10231;47.702;9.826;2023-05-21T02:54:30;8.20;;;7.50;;
20140;SDS011;10231;47.702;9.826;2023-05-21T02:56:55;8.47;;;7.20;;
20140;SDS011;10231;47.702;9.826;2023-05-21T02:59:21;8.03;;;7.23;;
20140;SDS011;10231;47.702;9.826;2023-05-21T03:01:47;7.30;;;6.70;;
20140;SDS011;10231;47.702;9.826;2023-05-21T03:04:13;8.23;;;6.73;;
20140;SDS011;10231;47.702;9.826;2023-05-21T03:06:39;7.67;;;6.20;;
20140;SDS011;10231;47.702;9.826;2023-05-21T03:09:04;8.43;;;6.50;;
20140;SDS011;10231;47.702;9.826;2023-05-21T03:11:30;8.53;;;6.77;;
20140;SDS011;10231;47.702;9.826;2023-05-21T03:13:56;7.40;;;6.70;;
20140;SDS011;10231;47.702;9.826;2023-05-21T03:16:21;10.03;;;7.13;;
20140;SDS011;10231;47.702;9.826;2023-05-21T03:18:47;8.60;;;7.73;;
20140;SDS011;10231;47.702;9.826;2023-05-21T03:21:13;7.70;;;6.90;;
20140;SDS011;10231;47.702;9.826;2023-05-21T03:23:39;8.10;;;6.90;;
20140;SDS011;10231;47.702;9.826;2023-05-21T03:26:05;8.00;;;7.23;;
20140;SDS011;10231;47.702;9.826;2023-05-21T03:28:31;7.20;;;6.50;;
20140;SDS011;10231;47.702;9.826;2023-05-21T03:30:57;7.30;;;6.53;;
20140;SDS011;10231;47.702;9.826;2023-05-21T03:33:23;7.63;;;6.93;;
20140;SDS011;10231;47.702;9.826;2023-05-21T03:35:48;6.60;;;6.00;;
20140;SDS011;10231;47.702;9.826;2023-05-21T03:38:14;7.27;;;6.57;;
20140;SDS011;10231;47.702;9.826;2023-05-21T03:40:40;8.00;;;6.80;;
20140;SDS011;10231;47.702;9.826;2023-05-21T03:43:05;9.10;;;6.87;;
20140;SDS011;10231;47.702;9.826;2023-05-21T03:45:31;7.83;;;7.07;;
20140;SDS011;10231;47.702;9.826;2023-05-21T03:47:56;8.40;;;7.47;;
20140;SDS011;10231;47.702;9.826;2023-05-21T03:50:23;7.80;;;7.10;;
20140;SDS011;10231;47.702;9.826;2023-05-21T03:52:49;6.00;;;5.50;;
20140;SDS011;10231;47.702;9.826;2023-05-21T03:55:14;6.77;;;6.07;;
20140;SDS011;10231;47.702;9.826;2023-05-21T03:57:40;7.67;;;6.47;;
20140;SDS011;10231;47.702;9.826;2023-05-21T04:00:06;10.33;;;6.80;;
20140;SDS011;10231;47.702;9.826;2023-05-21T04:02:33;8.13;;;7.33;;
20140;SDS011;10231;47.702;9.826;2023-05-21T04:04:59;7.53;;;6.83;;
20140;SDS011;10231;47.702;9.826;2023-05-21T04:07:24;9.23;;;7.67;;
20140;SDS011;10231;47.702;9.826;2023-05-21T04:09:51;8.40;;;7.60;;
20140;SDS011;10231;47.702;9.826;2023-05-21T04:12:16;8.83;;;7.97;;
20140;SDS011;10231;47.702;9.826;2023-05-21T04:14:44;7.47;;;6.77;;
20140;SDS011;10231;47.702;9.826;2023-05-21T04:17:10;7.60;;;6.90;;
20140;SDS011;10231;47.702;9.826;2023-05-21T04:19:36;8.50;;;7.60;;
20140;SDS011;10231;47.702;9.826;2023-05-21T04:22:02;8.20;;;7.50;;
20140;SDS011;10231;47.702;9.826;2023-05-21T04:24:28;7.70;;;7.00;;
20140;SDS011;10231;47.702;9.826;2023-05-21T04:26:55;8.20;;;7.40;;
20140;SDS011;10231;47.702;9.826;2023-05-21T04:29:25;8.97;;;7.43;;
20140;SDS011;10231;47.702;9.826;2023-05-21T04:31:55;8.57;;;7.57;;
20140;SDS011;10231;47.702;9.826;2023-05-21T04:34:20;7.40;;;6.70;;
20140;SDS011;10231;47.702;9.826;2023-05-21T04:36:46;8.40;;;7.50;;
20140;SDS011;10231;47.702;9.826;2023-05-21T04:39:12;9.27;;;6.90;;
20140;SDS011;10231;47.702;9.826;2023-05-21T04:41:38;6.77;;;6.17;;
20140;SDS011;10231;47.702;9.826;2023-05-21T04:44:07;7.40;;;6.70;;
20140;SDS011;10231;47.702;9.826;2023-05-21T04:46:33;7.60;;;6.57;;
20140;SDS011;10231;47.702;9.826;2023-05-21T04:49:01;6.77;;;6.17;;
20140;SDS011;10231;47.702;9.826;2023-05-21T04:51:27;7.77;;;7.07;;
20140;SDS011;10231;47.702;9.826;2023-05-21T04:53:54;6.97;;;6.20;;
20140;SDS011;10231;47.702;9.826;2023-05-21T04:56:20;7.47;;;6.73;;
20140;SDS011;10231;47.702;9.826;2023-05-21T04:58:54;8.13;;;7.40;;
20140;SDS011;10231;47.702;9.826;2023-05-21T05:01:22;9.43;;;7.40;;
20140;SDS011;10231;47.702;9.826;2023-05-21T05:03:49;7.57;;;6.87;;
20140;SDS011;10231;47.702;9.826;2023-05-21T05:06:15;9.10;;;7.50;;
20140;SDS011;10231;47.702;9.826;2023-05-21T05:08:41;8.37;;;7.43;;
20140;SDS011;10231;47.702;9.826;2023-05-21T05:11:06;8.20;;;7.27;;
20140;SDS011;10231;47.702;9.826;2023-05-21T05:13:32;8.00;;;7.30;;
20140;SDS011;10231;47.702;9.826;2023-05-21T05:15:58;9.30;;;7.20;;
20140;SDS011;10231;47.702;9.826;2023-05-21T05:18:24;7.53;;;6.93;;
20140;SDS011;10231;47.702;9.826;2023-05-21T05:20:50;7.73;;;6.93;;
20140;SDS011;10231;47.702;9.826;2023-05-21T05:23:15;8.20;;;7.50;;
20140;SDS011;10231;47.702;9.826;2023-05-21T05:25:41;8.17;;;7.37;;
20140;SDS011;10231;47.702;9.826;2023-05-21T05:28:07;6.87;;;6.27;;
20140;SDS011;10231;47.702;9.826;2023-05-21T05:30:32;7.73;;;7.00;;
20140;SDS011;10231;47.702;9.826;2023-05-21T05:32:58;7.20;;;6.27;;
20140;SDS011;10231;47.702;9.826;2023-05-21T05:35:23;7.20;;;6.20;;
20140;SDS011;10231;47.702;9.826;2023-05-21T05:37:49;7.17;;;6.57;;
20140;SDS011;10231;47.702;9.826;2023-05-21T05:40:14;7.80;;;7.10;;
20140;SDS011;10231;47.702;9.826;2023-05-21T05:42:40;7.17;;;6.57;;
20140;SDS011;10231;47.702;9.826;2023-05-21T05:45:05;9.43;;;6.90;;
20140;SDS011;10231;47.702;9.826;2023-05-21T05:47:31;8.00;;;7.20;;
20140;SDS011;10231;47.702;9.826;2023-05-21T05:49:57;7.57;;;6.97;;
20140;SDS011;10231;47.702;9.826;2023-05-21T05:52:22;8.03;;;7.27;;
20140;SDS011;10231;47.702;9.826;2023-05-21T05:54:48;7.90;;;7.20;;
20140;SDS011;10231;47.702;9.826;2023-05-21T05:57:13;8.73;;;7.17;;
20140;SDS011;10231;47.702;9.826;2023-05-21T05:59:39;8.43;;;7.30;;
20140;SDS011;10231;47.702;9.826;2023-05-21T06:02:05;7.90;;;7.17;;
20140;SDS011;10231;47.702;9.826;2023-05-21T06:04:31;9.20;;;7.50;;
20140;SDS011;10231;47.702;9.826;2023-05-21T06:06:56;8.13;;;7.40;;
20140;SDS011;10231;47.702;9.826;2023-05-21T06:09:22;8.77;;;7.27;;
20140;SDS011;10231;47.702;9.826;2023-05-21T06:11:48;7.90;;;7.00;;
20140;SDS011;10231;47.702;9.826;2023-05-21T06:14:14;9.83;;;7.50;;
20140;SDS011;10231;47.702;9.826;2023-05-21T06:16:39;7.83;;;7.13;;
20140;SDS011;10231;47.702;9.826;2023-05-21T06:19:05;9.13;;;7.40;;
20140;SDS011;10231;47.702;9.826;2023-05-21T06:21:31;7.93;;;7.13;;
20140;SDS011;10231;47.702;9.826;2023-05-21T06:23:57;7.83;;;7.10;;
20140;SDS011;10231;47.702;9.826;2023-05-21T06:26:23;7.40;;;6.70;;
20140;SDS011;10231;47.702;9.826;2023-05-21T06:28:49;8.43;;;7.30;;
20140;SDS011;10231;47.702;9.826;2023-05-21T06:31:14;7.17;;;6.57;;
20140;SDS011;10231;47.702;9.826;2023-05-21T06:33:40;7.63;;;6.93;;
20140;SDS011;10231;47.702;9.826;2023-05-21T06:36:06;6.97;;;6.37;;
20140;SDS011;10231;47.702;9.826;2023-05-21T06:38:31;6.30;;;5.80;;
20140;SDS011;10231;47.702;9.826;2023-05-21T06:40:57;7.33;;;6.50;;
20140;SDS011;10231;47.702;9.826;2023-05-21T06:43:23;6.30;;;5.73;;
20140;SDS011;10231;47.702;9.826;2023-05-21T06:45:49;7.37;;;6.77;;
20140;SDS011;10231;47.702;9.826;2023-05-21T06:48:14;7.63;;;6.97;;
20140;SDS011;10231;47.702;9.826;2023-05-21T06:50:41;7.90;;;7.20;;
20140;SDS011;10231;47.702;9.826;2023-05-21T06:53:11;7.43;;;6.67;;
20140;SDS011;10231;47.702;9.826;2023-05-21T06:55:40;7.73;;;6.00;;
20140;SDS011;10231;47.702;9.826;2023-05-21T06:58:08;7.03;;;6.07;;
20140;SDS011;10231;47.702;9.826;2023-05-21T07:00:35;7.70;;;7.00;;
20140;SDS011;10231;47.702;9.826;2023-05-21T07:03:00;8.83;;;6.87;;
20140;SDS011;10231;47.702;9.826;2023-05-21T07:05:26;6.83;;;6.20;;
20140;SDS011;10231;47.702;9.826;2023-05-21T07:07:51;7.57;;;6.90;;
20140;SDS011;10231;47.702;9.826;2023-05-21T07:10:17;8.00;;;7.30;;
20140;SDS011;10231;47.702;9.826;2023-05-21T07:12:42;8.10;;;7.30;;
20140;SDS011;10231;47.702;9.826;2023-05-21T07:15:08;8.10;;;7.30;;
20140;SDS011;10231;47.702;9.826;2023-05-21T07:17:34;7.97;;;7.27;;
20140;SDS011;10231;47.702;9.826;2023-05-21T07:19:59;7.63;;;6.90;;
20140;SDS011;10231;47.702;9.826;2023-05-21T07:22:25;8.50;;;7.70;;
20140;SDS011;10231;47.702;9.826;2023-05-21T07:24:50;8.50;;;7.70;;
20140;SDS011;10231;47.702;9.826;2023-05-21T07:27:16;9.83;;;8.57;;
20140;SDS011;10231;47.702;9.826;2023-05-21T07:29:41;9.53;;;8.53;;
20140;SDS011;10231;47.702;9.826;2023-05-21T07:32:07;9.33;;;8.43;;
20140;SDS011;10231;47.702;9.826;2023-05-21T07:34:33;8.37;;;7.57;;
20140;SDS011;10231;47.702;9.826;2023-05-21T07:36:58;8.80;;;7.93;;
20140;SDS011;10231;47.702;9.826;2023-05-21T07:39:23;9.33;;;8.43;;
20140;SDS011;10231;47.702;9.826;2023-05-21T07:41:49;8.53;;;7.63;;
20140;SDS011;10231;47.702;9.826;2023-05-21T07:44:14;9.47;;;8.57;;
20140;SDS011;10231;47.702;9.826;2023-05-21T07:46:40;7.53;;;6.83;;
20140;SDS011;10231;47.702;9.826;2023-05-21T07:49:06;8.20;;;7.47;;
20140;SDS011;10231;47.702;9.826;2023-05-21T07:51:31;10.67;;;7.93;;
20140;SDS011;10231;47.702;9.826;2023-05-21T07:53:57;7.33;;;6.73;;
20140;SDS011;10231;47.702;9.826;2023-05-21T07:56:22;8.03;;;7.27;;
20140;SDS011;10231;47.702;9.826;2023-05-21T07:58:48;8.60;;;7.30;;
20140;SDS011;10231;47.702;9.826;2023-05-21T08:01:14;8.57;;;7.17;;
20140;SDS011;10231;47.702;9.826;2023-05-21T08:03:40;8.53;;;7.73;;
20140;SDS011;10231;47.702;9.826;2023-05-21T08:06:05;8.43;;;7.57;;
20140;SDS011;10231;47.702;9.826;2023-05-21T08:08:31;8.00;;;7.20;;
20140;SDS011;10231;47.702;9.826;2023-05-21T08:10:56;8.33;;;7.60;;
20140;SDS011;10231;47.702;9.826;2023-05-21T08:13:22;8.33;;;7.57;;
20140;SDS011;10231;47.702;9.826;2023-05-21T08:15:47;8.60;;;7.60;;
20140;SDS011;10231;47.702;9.826;2023-05-21T08:18:13;8.00;;;7.30;;
20140;SDS011;10231;47.702;9.826;2023-05-21T08:20:39;8.17;;;7.37;;
20140;SDS011;10231;47.702;9.826;2023-05-21T08:23:05;7.60;;;6.90;;
20140;SDS011;10231;47.702;9.826;2023-05-21T08:25:31;7.20;;;6.57;;
20140;SDS011;10231;47.702;9.826;2023-05-21T08:27:56;8.30;;;6.77;;
20140;SDS011;10231;47.702;9.826;2023-05-21T08:30:22;7.43;;;6.73;;
20140;SDS011;10231;47.702;9.826;2023-05-21T08:32:47;8.63;;;7.80;;
20140;SDS011;10231;47.702;9.826;2023-05-21T08:35:13;8.13;;;7.10;;
20140;SDS011;10231;47.702;9.826;2023-05-21T08:37:39;7.67;;;6.97;;
20140;SDS011;10231;47.702;9.826;2023-05-21T08:40:04;6.97;;;6.37;;
20140;SDS011;10231;47.702;9.826;2023-05-21T08:42:48;6.83;;;6.17;;
20140;SDS011;10231;47.702;9.826;2023-05-21T08:45:24;7.40;;;6.70;;
20140;SDS011;10231;47.702;9.826;2023-05-21T08:47:53;8.40;;;7.23;;
20140;SDS011;10231;47.702;9.826;2023-05-21T08:50:23;8.57;;;7.77;;
20140;SDS011;10231;47.702;9.826;2023-05-21T08:52:51;8.83;;;8.03;;
20140;SDS011;10231;47.702;9.826;2023-05-21T08:55:19;8.70;;;7.90;;
20140;SDS011;10231;47.702;9.826;2023-05-21T08:57:46;11.90;;;9.13;;
20140;SDS011;10231;47.702;9.826;2023-05-21T09:00:12;9.30;;;6.80;;
20140;SDS011;10231;47.702;9.826;2023-05-21T09:02:38;9.30;;;6.40;;
20140;SDS011;10231;47.702;9.826;2023-05-21T09:05:08;9.53;;;6.47;;
20140;SDS011;10231;47.702;9.826;2023-05-21T09:07:49;9.53;;;6.60;;
20140;SDS011;10231;47.702;9.826;2023-05-21T09:10:25;7.33;;;6.63;;
20140;SDS011;10231;47.702;9.826;2023-05-21T09:12:58;7.00;;;6.40;;
20140;SDS011;10231;47.702;9.826;2023-05-21T09:15:24;6.40;;;5.80;;
20140;SDS011;10231;47.702;9.826;2023-05-21T09:17:50;7.80;;;5.97;;
20140;SDS011;10231;47.702;9.826;2023-05-21T09:20:16;5.80;;;5.30;;
20140;SDS011;10231;47.702;9.826;2023-05-21T09:22:42;6.83;;;6.10;;
20140;SDS011;10231;47.702;9.826;2023-05-21T09:25:13;6.93;;;6.23;;
20140;SDS011;10231;47.702;9.826;2023-05-21T09:27:40;5.93;;;5.43;;
20140;SDS011;10231;47.702;9.826;2023-05-21T09:30:09;6.97;;;6.07;;
20140;SDS011;10231;47.702;9.826;2023-05-21T09:32:37;6.37;;;5.77;;
20140;SDS011;10231;47.702;9.826;2023-05-21T09:35:10;5.83;;;5.27;;
20140;SDS011;10231;47.702;9.826;2023-05-21T09:42:52;6.10;;;5.60;;
20140;SDS011;10231;47.702;9.826;2023-05-21T09:45:19;5.83;;;5.33;;
20140;SDS011;10231;47.702;9.826;2023-05-21T09:47:46;5.77;;;5.37;;
20140;SDS011;10231;47.702;9.826;2023-05-21T09:50:16;6.47;;;5.37;;
20140;SDS011;10231;47.702;9.826;2023-05-21T09:52:46;7.63;;;5.03;;
20140;SDS011;10231;47.702;9.826;2023-05-21T09:55:14;6.33;;;5.73;;
20140;SDS011;10231;47.702;9.826;2023-05-21T09:57:41;6.40;;;5.90;;
20140;SDS011;10231;47.702;9.826;2023-05-21T10:00:07;5.97;;;5.47;;
20140;SDS011;10231;47.702;9.826;2023-05-21T10:02:41;5.17;;;4.70;;
20140;SDS011;10231;47.702;9.826;2023-05-21T10:05:09;6.00;;;5.50;;
20140;SDS011;10231;47.702;9.826;2023-05-21T10:07:37;7.23;;;5.50;;
20140;SDS011;10231;47.702;9.826;2023-05-21T10:10:06;6.97;;;6.00;;
20140;SDS011;10231;47.702;9.826;2023-05-21T10:12:35;5.83;;;5.43;;
20140;SDS011;10231;47.702;9.826;2023-05-21T10:15:02;8.07;;;6.37;;
20140;SDS011;10231;47.702;9.826;2023-05-21T10:17:30;6.70;;;6.10;;
20140;SDS011;10231;47.702;9.826;2023-05-21T10:19:56;7.07;;;6.37;;
20140;SDS011;10231;47.702;9.826;2023-05-21T10:22:23;7.47;;;6.73;;
20140;SDS011;10231;47.702;9.826;2023-05-21T10:24:49;7.33;;;6.63;;
20140;SDS011;10231;47.702;9.826;2023-05-21T10:27:17;7.03;;;6.37;;
20140;SDS011;10231;47.702;9.826;2023-05-21T10:29:44;6.47;;;5.87;;
20140;SDS011;10231;47.702;9.826;2023-05-21T10:32:14;7.10;;;6.50;;
20140;SDS011;10231;47.702;9.826;2023-05-21T10:34:42;10.17;;;6.10;;
20140;SDS011;10231;47.702;9.826;2023-05-21T10:37:08;6.27;;;5.77;;
20140;SDS011;10231;47.702;9.826;2023-05-21T10:39:34;9.77;;;6.03;;
20140;SDS011;10231;47.702;9.826;2023-05-21T10:42:20;6.20;;;5.60;;
20140;SDS011;10231;47.702;9.826;2023-05-21T10:50:41;5.57;;;5.07;;
20140;SDS011;10231;47.702;9.826;2023-05-21T10:54:03;5.63;;;5.13;;
20140;SDS011;10231;47.702;9.826;2023-05-21T10:56:44;5.20;;;4.70;;
20140;SDS011;10231;47.702;9.826;2023-05-21T11:02:06;5.47;;;4.97;;
20140;SDS011;10231;47.702;9.826;2023-05-21T11:04:33;5.10;;;4.70;;
20140;SDS011;10231;47.702;9.826;2023-05-21T11:07:03;6.43;;;5.83;;
20140;SDS011;10231;47.702;9.826;2023-05-21T11:09:29;5.20;;;4.70;;
20140;SDS011;10231;47.702;9.826;2023-05-21T11:11:56;5.83;;;4.70;;
20140;SDS011;10231;47.702;9.826;2023-05-21T11:14:26;4.10;;;3.80;;
20140;SDS011;10231;47.702;9.826;2023-05-21T11:16:52;4.70;;;4.30;;
20140;SDS011;10231;47.702;9.826;2023-05-21T11:19:18;4.03;;;3.73;;
20140;SDS011;10231;47.702;9.826;2023-05-21T11:21:48;4.57;;;4.23;;
20140;SDS011;10231;47.702;9.826;2023-05-21T11:24:18;3.90;;;3.60;;
20140;SDS011;10231;47.702;9.826;2023-05-21T11:29:16;3.97;;;3.67;;
20140;SDS011;10231;47.702;9.826;2023-05-21T11:31:46;3.80;;;3.60;;
20140;SDS011;10231;47.702;9.826;2023-05-21T11:34:13;3.60;;;3.20;;
20140;SDS011;10231;47.702;9.826;2023-05-21T11:36:40;3.60;;;3.30;;
20140;SDS011;10231;47.702;9.826;2023-05-21T11:39:12;3.80;;;3.43;;
20140;SDS011;10231;47.702;9.826;2023-05-21T11:41:58;3.57;;;3.27;;
20140;SDS011;10231;47.702;9.826;2023-05-21T11:44:38;3.30;;;3.00;;
20140;SDS011;10231;47.702;9.826;2023-05-21T11:47:05;3.80;;;3.50;;
20140;SDS011;10231;47.702;9.826;2023-05-21T11:49:32;3.80;;;3.50;;
20140;SDS011;10231;47.702;9.826;2023-05-21T11:51:58;4.20;;;3.30;;
20140;SDS011;10231;47.702;9.826;2023-05-21T11:54:25;3.23;;;3.03;;
20140;SDS011;10231;47.702;9.826;2023-05-21T11:56:51;3.00;;;2.80;;
20140;SDS011;10231;47.702;9.826;2023-05-21T11:59:18;3.40;;;3.10;;
20140;SDS011;10231;47.702;9.826;2023-05-21T12:01:44;4.17;;;3.77;;
20140;SDS011;10231;47.702;9.826;2023-05-21T12:04:10;3.87;;;3.57;;
20140;SDS011;10231;47.702;9.826;2023-05-21T12:06:37;3.57;;;3.27;;
20140;SDS011;10231;47.702;9.826;2023-05-21T12:09:06;3.73;;;3.43;;
20140;SDS011;10231;47.702;9.826;2023-05-21T12:11:33;3.63;;;3.33;;
20140;SDS011;10231;47.702;9.826;2023-05-21T12:14:05;3.70;;;3.50;;
20140;SDS011;10231;47.702;9.826;2023-05-21T12:16:32;3.13;;;2.93;;
20140;SDS011;10231;47.702;9.826;2023-05-21T12:18:58;4.23;;;3.50;;
20140;SDS011;10231;47.702;9.826;2023-05-21T12:21:24;3.37;;;3.13;;
20140;SDS011;10231;47.702;9.826;2023-05-21T12:23:52;3.23;;;2.97;;
20140;SDS011;10231;47.702;9.826;2023-05-21T12:26:18;3.73;;;3.47;;
20140;SDS011;10231;47.702;9.826;2023-05-21T12:28:43;3.70;;;3.40;;
20140;SDS011;10231;47.702;9.826;2023-05-21T12:31:15;4.90;;;3.40;;
20140;SDS011;10231;47.702;9.826;2023-05-21T12:33:46;4.70;;;4.30;;
20140;SDS011;10231;47.702;9.826;2023-05-21T12:36:26;3.87;;;3.53;;
20140;SDS011;10231;47.702;9.826;2023-05-21T12:38:53;4.37;;;3.57;;
20140;SDS011;10231;47.702;9.826;2023-05-21T12:41:20;4.03;;;3.63;;
20140;SDS011;10231;47.702;9.826;2023-05-21T12:43:46;4.70;;;3.97;;
20140;SDS011;10231;47.702;9.826;2023-05-21T12:46:12;4.23;;;3.53;;
20140;SDS011;10231;47.702;9.826;2023-05-21T12:49:02;4.30;;;3.97;;
20140;SDS011;10231;47.702;9.826;2023-05-21T12:51:36;4.13;;;3.83;;
20140;SDS011;10231;47.702;9.826;2023-05-21T12:54:03;4.37;;;4.07;;
20140;SDS011;10231;47.702;9.826;2023-05-21T12:56:28;3.70;;;3.50;;
20140;SDS011;10231;47.702;9.826;2023-05-21T12:59:11;5.47;;;4.10;;
20140;SDS011;10231;47.702;9.826;2023-05-21T13:01:39;4.70;;;4.30;;
20140;SDS011;10231;47.702;9.826;2023-05-21T13:04:04;3.67;;;3.47;;
20140;SDS011;10231;47.702;9.826;2023-05-21T13:06:40;3.97;;;3.57;;
20140;SDS011;10231;47.702;9.826;2023-05-21T13:09:06;3.83;;;3.57;;
20140;SDS011;10231;47.702;9.826;2023-05-21T13:11:31;4.33;;;4.03;;
20140;SDS011;10231;47.702;9.826;2023-05-21T13:13:57;3.70;;;3.40;;
20140;SDS011;10231;47.702;9.826;2023-05-21T13:16:22;3.80;;;3.50;;
20140;SDS011;10231;47.702;9.826;2023-05-21T13:18:48;3.53;;;3.23;;
20140;SDS011;10231;47.702;9.826;2023-05-21T13:21:13;3.90;;;3.60;;
20140;SDS011;10231;47.702;9.826;2023-05-21T13:23:39;3.63;;;3.33;;
20140;SDS011;10231;47.702;9.826;2023-05-21T13:26:04;3.67;;;3.37;;
20140;SDS011;10231;47.702;9.826;2023-05-21T13:28:30;3.70;;;3.40;;
20140;SDS011;10231;47.702;9.826;2023-05-21T13:30:56;4.90;;;3.33;;
20140;SDS011;10231;47.702;9.826;2023-05-21T13:33:21;3.30;;;3.00;;
20140;SDS011;10231;47.702;9.826;2023-05-21T13:35:47;3.40;;;3.10;;
20140;SDS011;10231;47.702;9.826;2023-05-21T13:38:15;4.20;;;3.37;;
20140;SDS011;10231;47.702;9.826;2023-05-21T13:40:41;3.60;;;3.30;;
20140;SDS011;10231;47.702;9.826;2023-05-21T13:43:06;3.87;;;3.47;;
20140;SDS011;10231;47.702;9.826;2023-05-21T13:45:32;3.70;;;3.27;;
20140;SDS011;10231;47.702;9.826;2023-05-21T13:47:57;3.93;;;3.63;;
20140;SDS011;10231;47.702;9.826;2023-05-21T13:50:23;4.30;;;3.90;;
20140;SDS011;10231;47.702;9.826;2023-05-21T13:52:49;3.90;;;3.50;;
20140;SDS011;10231;47.702;9.826;2023-05-21T13:55:14;4.30;;;4.00;;
20140;SDS011;10231;47.702;9.826;2023-05-21T13:57:40;5.70;;;3.60;;
20140;SDS011;10231;47.702;9.826;2023-05-21T14:00:06;4.90;;;3.93;;
20140;SDS011;10231;47.702;9.826;2023-05-21T14:02:38;4.90;;;3.70;;
20140;SDS011;10231;47.702;9.826;2023-05-21T14:05:05;4.40;;;3.87;;
20140;SDS011;10231;47.702;9.826;2023-05-21T14:07:30;4.37;;;3.97;;
20140;SDS011;10231;47.702;9.826;2023-05-21T14:09:56;5.37;;;3.90;;
20140;SDS011;10231;47.702;9.826;2023-05-21T14:12:22;4.17;;;3.87;;
20140;SDS011;10231;47.702;9.826;2023-05-21T14:14:47;4.07;;;3.77;;
20140;SDS011;10231;47.702;9.826;2023-05-21T14:17:16;3.40;;;3.00;;
20140;SDS011;10231;47.702;9.826;2023-05-21T14:19:41;4.17;;;3.80;;
20140;SDS011;10231;47.702;9.826;2023-05-21T14:22:07;3.90;;;3.60;;
20140;SDS011;10231;47.702;9.826;2023-05-21T14:24:32;4.07;;;3.63;;
20140;SDS011;10231;47.702;9.826;2023-05-21T14:26:58;4.30;;;3.83;;
20140;SDS011;10231;47.702;9.826;2023-05-21T14:29:23;3.60;;;3.30;;
20140;SDS011;10231;47.702;9.826;2023-05-21T14:31:49;4.57;;;3.67;;
20140;SDS011;10231;47.702;9.826;2023-05-21T14:34:14;3.93;;;3.53;;
20140;SDS011;10231;47.702;9.826;2023-05-21T14:36:40;4.20;;;3.80;;
20140;SDS011;10231;47.702;9.826;2023-05-21T14:39:06;4.10;;;3.83;;
20140;SDS011;10231;47.702;9.826;2023-05-21T14:41:31;5.10;;;4.70;;
20140;SDS011;10231;47.702;9.826;2023-05-21T14:43:57;6.40;;;4.67;;
20140;SDS011;10231;47.702;9.826;2023-05-21T14:46:22;4.67;;;4.27;;
20140;SDS011;10231;47.702;9.826;2023-05-21T14:48:48;4.97;;;4.47;;
20140;SDS011;10231;47.702;9.826;2023-05-21T14:51:13;4.33;;;4.03;;
20140;SDS011;10231;47.702;9.826;2023-05-21T14:53:39;4.57;;;4.13;;
20140;SDS011;10231;47.702;9.826;2023-05-21T14:56:05;4.60;;;4.20;;
20140;SDS011;10231;47.702;9.826;2023-05-21T14:58:31;5.47;;;4.30;;
20140;SDS011;10231;47.702;9.826;2023-05-21T15:00:56;4.53;;;4.13;;
20140;SDS011;10231;47.702;9.826;2023-05-21T15:03:22;4.00;;;3.70;;
20140;SDS011;10231;47.702;9.826;2023-05-21T15:05:48;4.47;;;3.93;;